sensor_id;sensor_type;location;lat;lon;timestamp;P1;durP1;ratioP1;P2;durP2;ratioP2
7426;SDS011;3755;59.316;18.092;2024-02-26T00:00:17;122.80;;;12.67;;
7426;SDS011;3755;59.316;18.092;2024-02-26T00:02:45;112.33;;;12.23;;
7426;SDS011;3755;59.316;18.092;2024-02-26T00:05:14;115.63;;;11.73;;
7426;SDS011;3755;59.316;18.092;2024-02-26T00:07:41;78.27;;;10.60;;
7426;SDS011;3755;59.316;18.092;2024-02-26T00:10:08;114.03;;;11.57;;
7426;SDS011;3755;59.316;18.092;2024-02-26T00:12:35;74.40;;;10.77;;
7426;SDS011;3755;59.316;18.092;2024-02-26T00:15:04;71.83;;;10.80;;
7426;SDS011;3755;59.316;18.092;2024-02-26T00:17:31;83.87;;;11.50;;
7426;SDS011;3755;59.316;18.092;2024-02-26T00:19:58;31.63;;;8.83;;
7426;SDS011;3755;59.316;18.092;2024-02-26T00:22:29;39.60;;;8.97;;
7426;SDS011;3755;59.316;18.092;2024-02-26T00:24:56;20.63;;;8.00;;
7426;SDS011;3755;59.316;18.092;2024-02-26T00:27:23;19.33;;;8.40;;
7426;SDS011;3755;59.316;18.092;2024-02-26T00:29:50;21.60;;;8.77;;
7426;SDS011;3755;59.316;18.092;2024-02-26T00:32:17;23.50;;;8.57;;
7426;SDS011;3755;59.316;18.092;2024-02-26T00:34:44;21.10;;;8.70;;
7426;SDS011;3755;59.316;18.092;2024-02-26T00:37:11;30.57;;;9.73;;
7426;SDS011;3755;59.316;18.092;2024-02-26T00:39:40;26.73;;;8.40;;
7426;SDS011;3755;59.316;18.092;2024-02-26T00:42:07;22.13;;;8.23;;
7426;SDS011;3755;59.316;18.092;2024-02-26T00:44:34;19.87;;;8.97;;
7426;SDS011;3755;59.316;18.092;2024-02-26T00:47:01;32.70;;;10.70;;
7426;SDS011;3755;59.316;18.092;2024-02-26T00:49:28;47.53;;;10.53;;
7426;SDS011;3755;59.316;18.092;2024-02-26T00:51:56;75.80;;;11.93;;
7426;SDS011;3755;59.316;18.092;2024-02-26T00:54:23;23.77;;;9.40;;
7426;SDS011;3755;59.316;18.092;2024-02-26T00:56:53;18.90;;;8.43;;
7426;SDS011;3755;59.316;18.092;2024-02-26T00:59:20;18.27;;;9.50;;
7426;SDS011;3755;59.316;18.092;2024-02-26T01:01:47;18.67;;;9.00;;
7426;SDS011;3755;59.316;18.092;2024-02-26T01:04:14;16.33;;;8.00;;
7426;SDS011;3755;59.316;18.092;2024-02-26T01:06:41;17.10;;;8.23;;
7426;SDS011;3755;59.316;18.092;2024-02-26T01:09:08;21.67;;;9.27;;
7426;SDS011;3755;59.316;18.092;2024-02-26T01:11:35;15.93;;;7.70;;
7426;SDS011;3755;59.316;18.092;2024-02-26T01:14:04;16.23;;;8.73;;
7426;SDS011;3755;59.316;18.092;2024-02-26T01:16:31;17.40;;;8.77;;
7426;SDS011;3755;59.316;18.092;2024-02-26T01:18:58;18.53;;;8.43;;
7426;SDS011;3755;59.316;18.092;2024-02-26T01:21:25;16.27;;;8.90;;
7426;SDS011;3755;59.316;18.092;2024-02-26T01:23:54;18.53;;;8.87;;
7426;SDS011;3755;59.316;18.092;2024-02-26T01:26:21;16.33;;;7.73;;
7426;SDS011;3755;59.316;18.092;2024-02-26T01:28:48;13.27;;;8.07;;
7426;SDS011;3755;59.316;18.092;2024-02-26T01:31:16;19.13;;;9.07;;
7426;SDS011;3755;59.316;18.092;2024-02-26T01:33:44;12.00;;;7.33;;
7426;SDS011;3755;59.316;18.092;2024-02-26T01:36:10;12.70;;;6.27;;
7426;SDS011;3755;59.316;18.092;2024-02-26T01:38:37;12.97;;;6.87;;
7426;SDS011;3755;59.316;18.092;2024-02-26T01:41:04;11.03;;;7.23;;
7426;SDS011;3755;59.316;18.092;2024-02-26T01:43:32;12.77;;;7.13;;
7426;SDS011;3755;59.316;18.092;2024-02-26T01:45:59;12.40;;;7.20;;
7426;SDS011;3755;59.316;18.092;2024-02-26T01:48:28;14.50;;;8.03;;
7426;SDS011;3755;59.316;18.092;2024-02-26T01:50:55;13.40;;;6.47;;
7426;SDS011;3755;59.316;18.092;2024-02-26T01:53:25;11.40;;;6.90;;
7426;SDS011;3755;59.316;18.092;2024-02-26T01:55:52;12.43;;;7.50;;
7426;SDS011;3755;59.316;18.092;2024-02-26T01:58:19;12.50;;;7.57;;
7426;SDS011;3755;59.316;18.092;2024-02-26T02:00:47;12.57;;;7.13;;
7426;SDS011;3755;59.316;18.092;2024-02-26T02:03:14;15.13;;;8.30;;
7426;SDS011;3755;59.316;18.092;2024-02-26T02:05:43;15.13;;;8.20;;
7426;SDS011;3755;59.316;18.092;2024-02-26T02:08:11;14.27;;;7.83;;
7426;SDS011;3755;59.316;18.092;2024-02-26T02:10:39;13.00;;;7.53;;
7426;SDS011;3755;59.316;18.092;2024-02-26T02:13:08;13.37;;;8.10;;
7426;SDS011;3755;59.316;18.092;2024-02-26T02:15:35;14.33;;;8.10;;
7426;SDS011;3755;59.316;18.092;2024-02-26T02:18:02;13.97;;;8.03;;
7426;SDS011;3755;59.316;18.092;2024-02-26T02:20:32;13.87;;;8.03;;
7426;SDS011;3755;59.316;18.092;2024-02-26T02:23:00;15.53;;;9.07;;
7426;SDS011;3755;59.316;18.092;2024-02-26T02:25:27;13.87;;;8.00;;
7426;SDS011;3755;59.316;18.092;2024-02-26T02:27:55;12.03;;;7.80;;
7426;SDS011;3755;59.316;18.092;2024-02-26T02:30:23;15.47;;;8.40;;
7426;SDS011;3755;59.316;18.092;2024-02-26T02:32:52;14.10;;;8.20;;
7426;SDS011;3755;59.316;18.092;2024-02-26T02:35:20;13.03;;;7.80;;
7426;SDS011;3755;59.316;18.092;2024-02-26T02:37:48;13.60;;;8.10;;
7426;SDS011;3755;59.316;18.092;2024-02-26T02:40:16;15.73;;;8.37;;
7426;SDS011;3755;59.316;18.092;2024-02-26T02:42:43;14.27;;;8.30;;
7426;SDS011;3755;59.316;18.092;2024-02-26T02:45:10;13.60;;;8.93;;
7426;SDS011;3755;59.316;18.092;2024-02-26T02:47:37;13.23;;;8.43;;
7426;SDS011;3755;59.316;18.092;2024-02-26T02:50:04;13.57;;;8.67;;
7426;SDS011;3755;59.316;18.092;2024-02-26T02:52:32;17.73;;;9.60;;
7426;SDS011;3755;59.316;18.092;2024-02-26T02:55:01;14.93;;;9.03;;
7426;SDS011;3755;59.316;18.092;2024-02-26T02:57:28;19.27;;;9.40;;
7426;SDS011;3755;59.316;18.092;2024-02-26T02:59:55;15.67;;;9.37;;
7426;SDS011;3755;59.316;18.092;2024-02-26T03:02:22;14.20;;;8.83;;
7426;SDS011;3755;59.316;18.092;2024-02-26T03:04:50;16.17;;;9.43;;
7426;SDS011;3755;59.316;18.092;2024-02-26T03:07:17;15.60;;;9.57;;
7426;SDS011;3755;59.316;18.092;2024-02-26T03:09:44;14.80;;;9.73;;
7426;SDS011;3755;59.316;18.092;2024-02-26T03:12:12;15.13;;;9.30;;
7426;SDS011;3755;59.316;18.092;2024-02-26T03:14:40;16.23;;;9.70;;
7426;SDS011;3755;59.316;18.092;2024-02-26T03:17:07;13.03;;;8.03;;
7426;SDS011;3755;59.316;18.092;2024-02-26T03:19:34;15.30;;;9.07;;
7426;SDS011;3755;59.316;18.092;2024-02-26T03:22:02;12.83;;;8.53;;
7426;SDS011;3755;59.316;18.092;2024-02-26T03:24:29;17.37;;;9.17;;
7426;SDS011;3755;59.316;18.092;2024-02-26T03:26:56;13.93;;;9.40;;
7426;SDS011;3755;59.316;18.092;2024-02-26T03:29:25;15.77;;;9.10;;
7426;SDS011;3755;59.316;18.092;2024-02-26T03:31:52;14.77;;;9.17;;
7426;SDS011;3755;59.316;18.092;2024-02-26T03:34:19;15.37;;;9.40;;
7426;SDS011;3755;59.316;18.092;2024-02-26T03:36:46;13.77;;;8.30;;
7426;SDS011;3755;59.316;18.092;2024-02-26T03:39:13;13.97;;;8.87;;
7426;SDS011;3755;59.316;18.092;2024-02-26T03:41:40;15.43;;;9.33;;
7426;SDS011;3755;59.316;18.092;2024-02-26T03:44:07;13.70;;;8.73;;
7426;SDS011;3755;59.316;18.092;2024-02-26T03:46:36;14.87;;;9.13;;
7426;SDS011;3755;59.316;18.092;2024-02-26T03:49:03;16.10;;;8.90;;
7426;SDS011;3755;59.316;18.092;2024-02-26T03:51:30;15.13;;;8.53;;
7426;SDS011;3755;59.316;18.092;2024-02-26T03:53:58;14.20;;;8.77;;
7426;SDS011;3755;59.316;18.092;2024-02-26T03:56:25;15.63;;;9.37;;
7426;SDS011;3755;59.316;18.092;2024-02-26T03:58:52;17.17;;;9.23;;
7426;SDS011;3755;59.316;18.092;2024-02-26T04:01:20;16.00;;;9.70;;
7426;SDS011;3755;59.316;18.092;2024-02-26T04:03:48;14.70;;;9.47;;
7426;SDS011;3755;59.316;18.092;2024-02-26T04:06:15;17.20;;;9.27;;
7426;SDS011;3755;59.316;18.092;2024-02-26T04:08:44;12.87;;;8.47;;
7426;SDS011;3755;59.316;18.092;2024-02-26T04:11:11;14.40;;;8.90;;
7426;SDS011;3755;59.316;18.092;2024-02-26T04:13:42;15.27;;;9.30;;
7426;SDS011;3755;59.316;18.092;2024-02-26T04:16:10;15.13;;;9.03;;
7426;SDS011;3755;59.316;18.092;2024-02-26T04:18:38;16.90;;;10.73;;
7426;SDS011;3755;59.316;18.092;2024-02-26T04:21:06;17.63;;;9.27;;
7426;SDS011;3755;59.316;18.092;2024-02-26T04:23:33;15.17;;;9.33;;
7426;SDS011;3755;59.316;18.092;2024-02-26T04:26:02;16.30;;;9.80;;
7426;SDS011;3755;59.316;18.092;2024-02-26T04:28:31;16.60;;;9.67;;
7426;SDS011;3755;59.316;18.092;2024-02-26T04:30:58;15.77;;;10.27;;
7426;SDS011;3755;59.316;18.092;2024-02-26T04:33:25;17.93;;;10.77;;
7426;SDS011;3755;59.316;18.092;2024-02-26T04:35:52;14.43;;;10.23;;
7426;SDS011;3755;59.316;18.092;2024-02-26T04:38:20;18.20;;;10.43;;
7426;SDS011;3755;59.316;18.092;2024-02-26T04:40:47;18.53;;;9.30;;
7426;SDS011;3755;59.316;18.092;2024-02-26T04:43:14;17.90;;;10.20;;
7426;SDS011;3755;59.316;18.092;2024-02-26T04:45:43;18.40;;;10.73;;
7426;SDS011;3755;59.316;18.092;2024-02-26T04:48:10;16.80;;;9.60;;
7426;SDS011;3755;59.316;18.092;2024-02-26T04:50:37;17.73;;;10.43;;
7426;SDS011;3755;59.316;18.092;2024-02-26T04:53:04;16.83;;;10.50;;
7426;SDS011;3755;59.316;18.092;2024-02-26T04:55:33;18.27;;;10.23;;
7426;SDS011;3755;59.316;18.092;2024-02-26T04:58:00;16.80;;;10.30;;
7426;SDS011;3755;59.316;18.092;2024-02-26T05:00:27;16.50;;;10.30;;
7426;SDS011;3755;59.316;18.092;2024-02-26T05:02:54;17.27;;;10.20;;
7426;SDS011;3755;59.316;18.092;2024-02-26T05:05:21;19.70;;;11.40;;
7426;SDS011;3755;59.316;18.092;2024-02-26T05:07:48;21.17;;;11.17;;
7426;SDS011;3755;59.316;18.092;2024-02-26T05:10:15;19.63;;;11.50;;
7426;SDS011;3755;59.316;18.092;2024-02-26T05:12:44;16.33;;;10.30;;
7426;SDS011;3755;59.316;18.092;2024-02-26T05:15:11;15.93;;;9.80;;
7426;SDS011;3755;59.316;18.092;2024-02-26T05:17:43;17.57;;;10.00;;
7426;SDS011;3755;59.316;18.092;2024-02-26T05:20:10;18.33;;;10.60;;
7426;SDS011;3755;59.316;18.092;2024-02-26T05:22:37;20.30;;;11.97;;
7426;SDS011;3755;59.316;18.092;2024-02-26T05:25:04;19.97;;;11.60;;
7426;SDS011;3755;59.316;18.092;2024-02-26T05:27:31;20.57;;;11.47;;
7426;SDS011;3755;59.316;18.092;2024-02-26T05:30:00;28.77;;;14.60;;
7426;SDS011;3755;59.316;18.092;2024-02-26T05:32:27;18.17;;;10.33;;
7426;SDS011;3755;59.316;18.092;2024-02-26T05:34:54;22.17;;;11.07;;
7426;SDS011;3755;59.316;18.092;2024-02-26T05:37:22;17.87;;;10.60;;
7426;SDS011;3755;59.316;18.092;2024-02-26T05:39:49;16.47;;;9.80;;
7426;SDS011;3755;59.316;18.092;2024-02-26T05:42:17;22.67;;;10.43;;
7426;SDS011;3755;59.316;18.092;2024-02-26T05:44:44;23.23;;;10.77;;
7426;SDS011;3755;59.316;18.092;2024-02-26T05:47:13;20.87;;;10.87;;
7426;SDS011;3755;59.316;18.092;2024-02-26T05:49:40;21.60;;;10.70;;
7426;SDS011;3755;59.316;18.092;2024-02-26T05:52:08;20.90;;;10.63;;
7426;SDS011;3755;59.316;18.092;2024-02-26T05:54:35;19.93;;;9.67;;
7426;SDS011;3755;59.316;18.092;2024-02-26T05:57:02;18.70;;;10.30;;
7426;SDS011;3755;59.316;18.092;2024-02-26T05:59:29;20.73;;;10.47;;
7426;SDS011;3755;59.316;18.092;2024-02-26T06:01:56;21.97;;;11.33;;
7426;SDS011;3755;59.316;18.092;2024-02-26T06:04:25;21.57;;;10.60;;
7426;SDS011;3755;59.316;18.092;2024-02-26T06:06:52;18.47;;;10.60;;
7426;SDS011;3755;59.316;18.092;2024-02-26T06:09:22;19.73;;;10.63;;
7426;SDS011;3755;59.316;18.092;2024-02-26T06:11:49;17.57;;;9.57;;
7426;SDS011;3755;59.316;18.092;2024-02-26T06:14:17;21.80;;;11.03;;
7426;SDS011;3755;59.316;18.092;2024-02-26T06:16:45;18.30;;;10.70;;
7426;SDS011;3755;59.316;18.092;2024-02-26T06:19:14;18.07;;;10.10;;
7426;SDS011;3755;59.316;18.092;2024-02-26T06:21:43;17.93;;;11.13;;
7426;SDS011;3755;59.316;18.092;2024-02-26T06:24:10;16.13;;;9.93;;
7426;SDS011;3755;59.316;18.092;2024-02-26T06:26:38;17.97;;;10.73;;
7426;SDS011;3755;59.316;18.092;2024-02-26T06:29:05;16.70;;;9.20;;
7426;SDS011;3755;59.316;18.092;2024-02-26T06:31:32;19.83;;;9.80;;
7426;SDS011;3755;59.316;18.092;2024-02-26T06:33:59;22.07;;;10.20;;
7426;SDS011;3755;59.316;18.092;2024-02-26T06:36:26;19.70;;;10.07;;
7426;SDS011;3755;59.316;18.092;2024-02-26T06:38:55;18.83;;;9.73;;
7426;SDS011;3755;59.316;18.092;2024-02-26T06:41:22;19.07;;;10.60;;
7426;SDS011;3755;59.316;18.092;2024-02-26T06:43:52;18.63;;;9.87;;
7426;SDS011;3755;59.316;18.092;2024-02-26T06:46:20;61.97;;;10.20;;
7426;SDS011;3755;59.316;18.092;2024-02-26T06:48:47;58.27;;;10.37;;
7426;SDS011;3755;59.316;18.092;2024-02-26T06:51:14;107.03;;;12.07;;
7426;SDS011;3755;59.316;18.092;2024-02-26T06:53:42;54.97;;;10.73;;
7426;SDS011;3755;59.316;18.092;2024-02-26T06:56:10;28.30;;;9.60;;
7426;SDS011;3755;59.316;18.092;2024-02-26T06:58:38;28.50;;;9.17;;
7426;SDS011;3755;59.316;18.092;2024-02-26T07:01:06;30.37;;;9.57;;
7426;SDS011;3755;59.316;18.092;2024-02-26T07:03:33;15.80;;;8.33;;
7426;SDS011;3755;59.316;18.092;2024-02-26T07:06:00;17.40;;;8.77;;
7426;SDS011;3755;59.316;18.092;2024-02-26T07:08:28;16.97;;;9.20;;
7426;SDS011;3755;59.316;18.092;2024-02-26T07:10:55;15.50;;;10.00;;
7426;SDS011;3755;59.316;18.092;2024-02-26T07:13:24;15.90;;;9.23;;
7426;SDS011;3755;59.316;18.092;2024-02-26T07:15:51;16.27;;;9.60;;
7426;SDS011;3755;59.316;18.092;2024-02-26T07:18:18;15.87;;;9.00;;
7426;SDS011;3755;59.316;18.092;2024-02-26T07:20:45;16.13;;;9.70;;
7426;SDS011;3755;59.316;18.092;2024-02-26T07:23:12;15.47;;;9.30;;
7426;SDS011;3755;59.316;18.092;2024-02-26T07:25:39;17.10;;;9.20;;
7426;SDS011;3755;59.316;18.092;2024-02-26T07:28:07;15.27;;;8.83;;
7426;SDS011;3755;59.316;18.092;2024-02-26T07:30:35;14.97;;;8.27;;
7426;SDS011;3755;59.316;18.092;2024-02-26T07:33:03;14.03;;;8.37;;
7426;SDS011;3755;59.316;18.092;2024-02-26T07:35:30;17.50;;;9.73;;
7426;SDS011;3755;59.316;18.092;2024-02-26T07:37:58;15.53;;;8.73;;
7426;SDS011;3755;59.316;18.092;2024-02-26T07:40:27;16.23;;;8.97;;
7426;SDS011;3755;59.316;18.092;2024-02-26T07:42:54;18.07;;;9.90;;
7426;SDS011;3755;59.316;18.092;2024-02-26T07:45:21;15.67;;;8.37;;
7426;SDS011;3755;59.316;18.092;2024-02-26T07:47:50;14.77;;;8.80;;
7426;SDS011;3755;59.316;18.092;2024-02-26T07:50:17;18.60;;;10.27;;
7426;SDS011;3755;59.316;18.092;2024-02-26T07:52:59;18.17;;;10.03;;
7426;SDS011;3755;59.316;18.092;2024-02-26T07:55:26;14.33;;;8.83;;
7426;SDS011;3755;59.316;18.092;2024-02-26T07:57:53;17.60;;;10.13;;
7426;SDS011;3755;59.316;18.092;2024-02-26T08:00:20;15.77;;;9.10;;
7426;SDS011;3755;59.316;18.092;2024-02-26T08:02:48;14.80;;;8.50;;
7426;SDS011;3755;59.316;18.092;2024-02-26T08:05:27;14.93;;;8.57;;
7426;SDS011;3755;59.316;18.092;2024-02-26T08:07:54;15.23;;;8.23;;
7426;SDS011;3755;59.316;18.092;2024-02-26T08:10:22;12.73;;;7.83;;
7426;SDS011;3755;59.316;18.092;2024-02-26T08:12:51;13.93;;;7.93;;
7426;SDS011;3755;59.316;18.092;2024-02-26T08:15:18;15.83;;;9.47;;
7426;SDS011;3755;59.316;18.092;2024-02-26T08:17:45;18.13;;;9.47;;
7426;SDS011;3755;59.316;18.092;2024-02-26T08:20:14;15.20;;;8.67;;
7426;SDS011;3755;59.316;18.092;2024-02-26T08:22:41;19.37;;;10.70;;
7426;SDS011;3755;59.316;18.092;2024-02-26T08:25:09;22.07;;;10.10;;
7426;SDS011;3755;59.316;18.092;2024-02-26T08:27:37;25.33;;;10.37;;
7426;SDS011;3755;59.316;18.092;2024-02-26T08:30:04;27.63;;;10.33;;
7426;SDS011;3755;59.316;18.092;2024-02-26T08:32:32;22.73;;;10.30;;
7426;SDS011;3755;59.316;18.092;2024-02-26T08:35:00;24.67;;;11.00;;
7426;SDS011;3755;59.316;18.092;2024-02-26T08:37:28;27.10;;;10.73;;
7426;SDS011;3755;59.316;18.092;2024-02-26T08:39:56;37.63;;;10.93;;
7426;SDS011;3755;59.316;18.092;2024-02-26T08:42:23;50.77;;;11.37;;
7426;SDS011;3755;59.316;18.092;2024-02-26T08:44:51;74.47;;;11.53;;
7426;SDS011;3755;59.316;18.092;2024-02-26T08:47:19;77.70;;;10.13;;
7426;SDS011;3755;59.316;18.092;2024-02-26T08:49:47;34.67;;;10.53;;
7426;SDS011;3755;59.316;18.092;2024-02-26T08:52:14;49.03;;;11.37;;
7426;SDS011;3755;59.316;18.092;2024-02-26T08:54:43;49.27;;;10.67;;
7426;SDS011;3755;59.316;18.092;2024-02-26T08:57:10;38.77;;;10.37;;
7426;SDS011;3755;59.316;18.092;2024-02-26T08:59:37;30.43;;;10.97;;
7426;SDS011;3755;59.316;18.092;2024-02-26T09:02:05;20.63;;;9.43;;
7426;SDS011;3755;59.316;18.092;2024-02-26T09:04:34;63.63;;;10.77;;
7426;SDS011;3755;59.316;18.092;2024-02-26T09:07:02;29.10;;;11.27;;
7426;SDS011;3755;59.316;18.092;2024-02-26T09:09:31;55.83;;;11.30;;
7426;SDS011;3755;59.316;18.092;2024-02-26T09:12:00;51.30;;;10.03;;
7426;SDS011;3755;59.316;18.092;2024-02-26T09:14:28;89.17;;;12.47;;
7426;SDS011;3755;59.316;18.092;2024-02-26T09:16:56;55.23;;;10.67;;
7426;SDS011;3755;59.316;18.092;2024-02-26T09:19:24;75.83;;;11.33;;
7426;SDS011;3755;59.316;18.092;2024-02-26T09:21:53;101.60;;;13.90;;
7426;SDS011;3755;59.316;18.092;2024-02-26T09:24:24;111.77;;;16.50;;
7426;SDS011;3755;59.316;18.092;2024-02-26T09:27:11;132.50;;;13.97;;
7426;SDS011;3755;59.316;18.092;2024-02-26T09:29:52;78.73;;;11.77;;
7426;SDS011;3755;59.316;18.092;2024-02-26T09:32:35;70.93;;;10.70;;
7426;SDS011;3755;59.316;18.092;2024-02-26T09:35:20;84.33;;;11.07;;
7426;SDS011;3755;59.316;18.092;2024-02-26T09:37:47;150.40;;;14.40;;
7426;SDS011;3755;59.316;18.092;2024-02-26T09:40:15;48.20;;;9.57;;
7426;SDS011;3755;59.316;18.092;2024-02-26T09:42:47;54.20;;;10.47;;
7426;SDS011;3755;59.316;18.092;2024-02-26T09:45:23;66.13;;;9.63;;
7426;SDS011;3755;59.316;18.092;2024-02-26T09:47:52;35.03;;;9.00;;
7426;SDS011;3755;59.316;18.092;2024-02-26T09:50:23;50.70;;;9.43;;
7426;SDS011;3755;59.316;18.092;2024-02-26T09:52:51;88.13;;;10.03;;
7426;SDS011;3755;59.316;18.092;2024-02-26T09:55:20;46.87;;;9.30;;
7426;SDS011;3755;59.316;18.092;2024-02-26T09:57:51;57.07;;;9.77;;
7426;SDS011;3755;59.316;18.092;2024-02-26T10:00:20;47.20;;;10.33;;
7426;SDS011;3755;59.316;18.092;2024-02-26T10:02:50;39.00;;;10.00;;
7426;SDS011;3755;59.316;18.092;2024-02-26T10:05:33;28.53;;;9.23;;
7426;SDS011;3755;59.316;18.092;2024-02-26T10:08:03;39.03;;;8.70;;
7426;SDS011;3755;59.316;18.092;2024-02-26T10:10:31;35.53;;;9.50;;
7426;SDS011;3755;59.316;18.092;2024-02-26T10:13:01;26.20;;;9.90;;
7426;SDS011;3755;59.316;18.092;2024-02-26T10:15:35;37.27;;;9.50;;
7426;SDS011;3755;59.316;18.092;2024-02-26T10:18:04;18.53;;;9.00;;
7426;SDS011;3755;59.316;18.092;2024-02-26T10:20:34;21.73;;;9.17;;
7426;SDS011;3755;59.316;18.092;2024-02-26T10:23:03;18.83;;;8.30;;
7426;SDS011;3755;59.316;18.092;2024-02-26T10:25:31;20.77;;;8.83;;
7426;SDS011;3755;59.316;18.092;2024-02-26T10:27:59;17.03;;;8.80;;
7426;SDS011;3755;59.316;18.092;2024-02-26T10:30:57;17.50;;;9.03;;
7426;SDS011;3755;59.316;18.092;2024-02-26T10:33:45;20.13;;;9.23;;
7426;SDS011;3755;59.316;18.092;2024-02-26T10:36:13;16.10;;;9.47;;
7426;SDS011;3755;59.316;18.092;2024-02-26T10:38:41;17.88;;;8.48;;
7426;SDS011;3755;59.316;18.092;2024-02-26T10:41:12;17.57;;;8.97;;
7426;SDS011;3755;59.316;18.092;2024-02-26T10:43:41;18.30;;;9.47;;
7426;SDS011;3755;59.316;18.092;2024-02-26T10:46:12;18.83;;;9.47;;
7426;SDS011;3755;59.316;18.092;2024-02-26T10:48:50;19.20;;;9.17;;
7426;SDS011;3755;59.316;18.092;2024-02-26T10:51:18;17.37;;;8.80;;
7426;SDS011;3755;59.316;18.092;2024-02-26T10:53:49;29.00;;;9.73;;
7426;SDS011;3755;59.316;18.092;2024-02-26T10:56:19;25.70;;;11.37;;
7426;SDS011;3755;59.316;18.092;2024-02-26T10:58:56;15.70;;;9.07;;
7426;SDS011;3755;59.316;18.092;2024-02-26T11:01:30;21.50;;;11.20;;
7426;SDS011;3755;59.316;18.092;2024-02-26T11:04:18;40.00;;;10.23;;
7426;SDS011;3755;59.316;18.092;2024-02-26T11:06:47;26.17;;;9.47;;
7426;SDS011;3755;59.316;18.092;2024-02-26T11:09:30;23.93;;;9.73;;
7426;SDS011;3755;59.316;18.092;2024-02-26T11:11:59;26.40;;;9.37;;
7426;SDS011;3755;59.316;18.092;2024-02-26T11:14:28;18.27;;;8.95;;
7426;SDS011;3755;59.316;18.092;2024-02-26T11:17:00;14.30;;;8.43;;
7426;SDS011;3755;59.316;18.092;2024-02-26T11:19:45;16.17;;;8.87;;
7426;SDS011;3755;59.316;18.092;2024-02-26T11:22:15;25.13;;;9.40;;
7426;SDS011;3755;59.316;18.092;2024-02-26T11:24:57;20.50;;;8.83;;
7426;SDS011;3755;59.316;18.092;2024-02-26T11:27:39;17.50;;;8.77;;
7426;SDS011;3755;59.316;18.092;2024-02-26T11:30:12;27.43;;;9.40;;
7426;SDS011;3755;59.316;18.092;2024-02-26T11:32:55;18.13;;;8.50;;
7426;SDS011;3755;59.316;18.092;2024-02-26T11:35:53;19.83;;;10.40;;
7426;SDS011;3755;59.316;18.092;2024-02-26T11:38:36;18.85;;;10.30;;
7426;SDS011;3755;59.316;18.092;2024-02-26T11:41:17;22.87;;;9.03;;
7426;SDS011;3755;59.316;18.092;2024-02-26T11:43:59;17.63;;;9.02;;
7426;SDS011;3755;59.316;18.092;2024-02-26T11:46:30;17.38;;;9.77;;
7426;SDS011;3755;59.316;18.092;2024-02-26T12:03:30;13.57;;;8.70;;
7426;SDS011;3755;59.316;18.092;2024-02-26T12:06:15;12.73;;;7.50;;
7426;SDS011;3755;59.316;18.092;2024-02-26T12:09:05;11.80;;;7.93;;
7426;SDS011;3755;59.316;18.092;2024-02-26T12:11:46;14.13;;;8.27;;
7426;SDS011;3755;59.316;18.092;2024-02-26T12:15:00;14.47;;;8.00;;
7426;SDS011;3755;59.316;18.092;2024-02-26T12:20:57;12.98;;;7.93;;
7426;SDS011;3755;59.316;18.092;2024-02-26T12:56:27;20.47;;;7.33;;
7426;SDS011;3755;59.316;18.092;2024-02-26T12:59:29;14.47;;;6.90;;
7426;SDS011;3755;59.316;18.092;2024-02-26T13:02:05;11.37;;;6.77;;
7426;SDS011;3755;59.316;18.092;2024-02-26T13:04:49;12.63;;;7.10;;
7426;SDS011;3755;59.316;18.092;2024-02-26T13:07:30;10.53;;;7.33;;
7426;SDS011;3755;59.316;18.092;2024-02-26T13:09:59;13.53;;;7.53;;
7426;SDS011;3755;59.316;18.092;2024-02-26T13:15:47;11.63;;;7.20;;
7426;SDS011;3755;59.316;18.092;2024-02-26T13:18:29;8.87;;;7.07;;
7426;SDS011;3755;59.316;18.092;2024-02-26T13:23:37;9.67;;;6.57;;
7426;SDS011;3755;59.316;18.092;2024-02-26T13:26:22;11.07;;;6.33;;
7426;SDS011;3755;59.316;18.092;2024-02-26T13:35:22;10.60;;;6.93;;
7426;SDS011;3755;59.316;18.092;2024-02-26T13:37:53;10.50;;;6.90;;
7426;SDS011;3755;59.316;18.092;2024-02-26T13:40:34;9.57;;;6.77;;
7426;SDS011;3755;59.316;18.092;2024-02-26T13:46:37;11.83;;;8.00;;
7426;SDS011;3755;59.316;18.092;2024-02-26T13:49:17;24.30;;;15.67;;
7426;SDS011;3755;59.316;18.092;2024-02-26T13:51:45;13.23;;;9.43;;
7426;SDS011;3755;59.316;18.092;2024-02-26T13:54:14;14.43;;;9.93;;
7426;SDS011;3755;59.316;18.092;2024-02-26T13:56:42;12.33;;;7.50;;
7426;SDS011;3755;59.316;18.092;2024-02-26T13:59:23;11.37;;;7.80;;
7426;SDS011;3755;59.316;18.092;2024-02-26T14:02:06;10.20;;;7.10;;
7426;SDS011;3755;59.316;18.092;2024-02-26T14:04:49;9.23;;;6.23;;
7426;SDS011;3755;59.316;18.092;2024-02-26T14:07:31;10.83;;;7.93;;
7426;SDS011;3755;59.316;18.092;2024-02-26T14:10:17;10.83;;;7.57;;
7426;SDS011;3755;59.316;18.092;2024-02-26T14:12:52;11.50;;;8.27;;
7426;SDS011;3755;59.316;18.092;2024-02-26T14:15:27;12.17;;;7.77;;
7426;SDS011;3755;59.316;18.092;2024-02-26T14:18:09;14.63;;;8.90;;
7426;SDS011;3755;59.316;18.092;2024-02-26T14:20:52;14.23;;;9.70;;
7426;SDS011;3755;59.316;18.092;2024-02-26T14:23:36;10.63;;;7.77;;
7426;SDS011;3755;59.316;18.092;2024-02-26T14:26:24;12.17;;;8.23;;
7426;SDS011;3755;59.316;18.092;2024-02-26T14:28:52;11.93;;;8.77;;
7426;SDS011;3755;59.316;18.092;2024-02-26T14:31:34;22.87;;;17.53;;
7426;SDS011;3755;59.316;18.092;2024-02-26T14:34:04;16.33;;;13.73;;
7426;SDS011;3755;59.316;18.092;2024-02-26T14:36:47;23.63;;;15.90;;
7426;SDS011;3755;59.316;18.092;2024-02-26T14:39:28;28.47;;;20.10;;
7426;SDS011;3755;59.316;18.092;2024-02-26T14:41:57;23.43;;;13.27;;
7426;SDS011;3755;59.316;18.092;2024-02-26T14:44:25;17.97;;;13.57;;
7426;SDS011;3755;59.316;18.092;2024-02-26T14:47:06;14.30;;;11.10;;
7426;SDS011;3755;59.316;18.092;2024-02-26T14:49:49;15.20;;;9.43;;
7426;SDS011;3755;59.316;18.092;2024-02-26T14:55:49;14.17;;;8.90;;
7426;SDS011;3755;59.316;18.092;2024-02-26T15:01:49;12.13;;;8.80;;
7426;SDS011;3755;59.316;18.092;2024-02-26T15:04:32;13.50;;;9.20;;
7426;SDS011;3755;59.316;18.092;2024-02-26T15:07:13;13.73;;;8.87;;
7426;SDS011;3755;59.316;18.092;2024-02-26T15:10:00;14.43;;;8.70;;
7426;SDS011;3755;59.316;18.092;2024-02-26T15:12:41;15.07;;;9.00;;
7426;SDS011;3755;59.316;18.092;2024-02-26T15:15:24;13.93;;;8.50;;
7426;SDS011;3755;59.316;18.092;2024-02-26T15:18:05;15.07;;;9.30;;
7426;SDS011;3755;59.316;18.092;2024-02-26T15:21:03;17.63;;;10.87;;
7426;SDS011;3755;59.316;18.092;2024-02-26T15:23:46;20.57;;;11.80;;
7426;SDS011;3755;59.316;18.092;2024-02-26T15:32:57;18.07;;;11.30;;
7426;SDS011;3755;59.316;18.092;2024-02-26T15:35:38;18.67;;;10.83;;
7426;SDS011;3755;59.316;18.092;2024-02-26T15:38:20;18.77;;;11.50;;
7426;SDS011;3755;59.316;18.092;2024-02-26T15:41:01;17.87;;;11.33;;
7426;SDS011;3755;59.316;18.092;2024-02-26T15:43:43;17.60;;;10.70;;
7426;SDS011;3755;59.316;18.092;2024-02-26T15:46:10;20.80;;;11.90;;
7426;SDS011;3755;59.316;18.092;2024-02-26T15:52:02;23.60;;;12.00;;
7426;SDS011;3755;59.316;18.092;2024-02-26T15:54:37;20.60;;;11.70;;
7426;SDS011;3755;59.316;18.092;2024-02-26T15:57:05;19.17;;;11.97;;
7426;SDS011;3755;59.316;18.092;2024-02-26T15:59:34;20.83;;;12.87;;
7426;SDS011;3755;59.316;18.092;2024-02-26T16:02:03;20.67;;;12.23;;
7426;SDS011;3755;59.316;18.092;2024-02-26T16:04:30;18.33;;;10.87;;
7426;SDS011;3755;59.316;18.092;2024-02-26T16:06:58;20.63;;;11.50;;
7426;SDS011;3755;59.316;18.092;2024-02-26T16:09:49;24.40;;;12.20;;
7426;SDS011;3755;59.316;18.092;2024-02-26T16:12:34;25.80;;;12.10;;
7426;SDS011;3755;59.316;18.092;2024-02-26T16:15:04;28.03;;;12.30;;
7426;SDS011;3755;59.316;18.092;2024-02-26T16:17:36;34.50;;;11.93;;
7426;SDS011;3755;59.316;18.092;2024-02-26T16:20:12;31.80;;;12.53;;
7426;SDS011;3755;59.316;18.092;2024-02-26T16:22:41;26.87;;;11.27;;
7426;SDS011;3755;59.316;18.092;2024-02-26T16:25:09;27.10;;;13.40;;
7426;SDS011;3755;59.316;18.092;2024-02-26T16:27:51;31.10;;;13.63;;